To NAV CANADA Home Page Login to a new session Search on AWWS site Feedback and Comments Disclaimer Vers la page française équivalente Tips FAQ What's new on the site To the Forecasts and Observations / NOTAM section To "File a Flight Plan" website Publications and other links Update of the User's profile FIC Telephone Numbers My Weather Data Folder Route Weather Data Regional Weather Data Local Weather Data To the Forecasts and Observations / NOTAM section
Request Generated 07/03/2015 at 23:39:40 UTC . Weather information available at that time is displayed.

METAR/TAF

CALGARY/SPRINGBANK/AB    (show WxCam)

METAR CYBW 032300Z AUTO 14007G15KT 120V190 9SM OVC130 28/10 A2988 RMK
SLP102 DENSITY ALT 6300FT=
METAR CYBW 032200Z AUTO VRB06KT 9SM SCT130 28/08 A2988 RMK SLP104
DENSITY ALT 6300FT=
METAR CYBW 032100Z AUTO 08006KT 030V120 9SM CLR 29/08 A2989 RMK
SLP106 DENSITY ALT 6400FT=

TAF CYBW 032338Z 0400/0404 14008KT P6SM BKN120 PROB30 0400/0404
VRB20G30KT 4SM TSRA BKN060CB
RMK FCST BASED ON AUTO OBS. NXT FCST WILL BE ISSUED AT 041145Z=
Your time UTC time
Weather data provided by Environment Canada and NAV CANADA